sensor_id;sensor_type;location;lat;lon;timestamp;temperature;humidity
3866;DHT22;1948;53.250;10.412;2023-09-19T00:02:17;17.60;99.90
3866;DHT22;1948;53.250;10.412;2023-09-19T00:04:45;17.50;99.90
3866;DHT22;1948;53.250;10.412;2023-09-19T00:07:15;17.50;99.90
3866;DHT22;1948;53.250;10.412;2023-09-19T00:09:43;17.50;99.90
3866;DHT22;1948;53.250;10.412;2023-09-19T00:12:17;17.50;99.90
3866;DHT22;1948;53.250;10.412;2023-09-19T00:14:50;17.50;99.90
3866;DHT22;1948;53.250;10.412;2023-09-19T00:17:18;17.50;99.90
3866;DHT22;1948;53.250;10.412;2023-09-19T00:19:45;17.40;99.90
3866;DHT22;1948;53.250;10.412;2023-09-19T00:22:13;17.40;99.90
3866;DHT22;1948;53.250;10.412;2023-09-19T00:24:42;17.40;99.90
3866;DHT22;1948;53.250;10.412;2023-09-19T00:27:09;17.40;99.90
3866;DHT22;1948;53.250;10.412;2023-09-19T00:29:36;17.30;99.90
3866;DHT22;1948;53.250;10.412;2023-09-19T00:32:06;17.30;99.90
3866;DHT22;1948;53.250;10.412;2023-09-19T00:34:34;17.30;99.90
3866;DHT22;1948;53.250;10.412;2023-09-19T00:37:04;17.20;99.90
3866;DHT22;1948;53.250;10.412;2023-09-19T00:39:31;17.20;99.90
3866;DHT22;1948;53.250;10.412;2023-09-19T00:41:59;17.20;99.90
3866;DHT22;1948;53.250;10.412;2023-09-19T00:44:34;17.20;99.90
3866;DHT22;1948;53.250;10.412;2023-09-19T00:47:05;17.20;99.90
3866;DHT22;1948;53.250;10.412;2023-09-19T00:49:35;17.20;99.90
3866;DHT22;1948;53.250;10.412;2023-09-19T00:52:05;17.30;99.90
3866;DHT22;1948;53.250;10.412;2023-09-19T00:54:34;17.30;99.90
3866;DHT22;1948;53.250;10.412;2023-09-19T00:57:07;17.30;99.90
3866;DHT22;1948;53.250;10.412;2023-09-19T00:59:38;17.30;99.90
3866;DHT22;1948;53.250;10.412;2023-09-19T01:02:06;17.30;99.90
3866;DHT22;1948;53.250;10.412;2023-09-19T01:04:35;17.30;99.90
3866;DHT22;1948;53.250;10.412;2023-09-19T01:07:03;17.30;99.90
3866;DHT22;1948;53.250;10.412;2023-09-19T01:09:30;17.40;99.90
3866;DHT22;1948;53.250;10.412;2023-09-19T01:12:02;17.30;99.90
3866;DHT22;1948;53.250;10.412;2023-09-19T01:14:42;17.40;99.90
3866;DHT22;1948;53.250;10.412;2023-09-19T01:17:30;17.40;99.90
3866;DHT22;1948;53.250;10.412;2023-09-19T01:23:06;17.50;99.90
3866;DHT22;1948;53.250;10.412;2023-09-19T01:26:06;17.50;99.90
3866;DHT22;1948;53.250;10.412;2023-09-19T01:29:01;17.50;99.90
3866;DHT22;1948;53.250;10.412;2023-09-19T01:31:40;17.40;99.90
3866;DHT22;1948;53.250;10.412;2023-09-19T01:34:10;17.40;99.90
3866;DHT22;1948;53.250;10.412;2023-09-19T01:36:38;17.40;99.90
3866;DHT22;1948;53.250;10.412;2023-09-19T01:39:07;17.50;99.90
3866;DHT22;1948;53.250;10.412;2023-09-19T01:42:05;17.40;99.90
3866;DHT22;1948;53.250;10.412;2023-09-19T01:45:16;17.40;99.90
3866;DHT22;1948;53.250;10.412;2023-09-19T01:47:53;17.40;99.90
3866;DHT22;1948;53.250;10.412;2023-09-19T01:50:52;17.30;99.90
3866;DHT22;1948;53.250;10.412;2023-09-19T01:54:08;17.40;99.90
3866;DHT22;1948;53.250;10.412;2023-09-19T01:59:21;17.40;99.90
3866;DHT22;1948;53.250;10.412;2023-09-19T02:01:55;17.40;99.90
3866;DHT22;1948;53.250;10.412;2023-09-19T02:04:23;17.40;99.90
3866;DHT22;1948;53.250;10.412;2023-09-19T02:06:50;17.40;99.90
3866;DHT22;1948;53.250;10.412;2023-09-19T02:09:18;17.50;99.90
3866;DHT22;1948;53.250;10.412;2023-09-19T02:11:48;17.50;99.90
3866;DHT22;1948;53.250;10.412;2023-09-19T02:14:16;17.30;99.90
3866;DHT22;1948;53.250;10.412;2023-09-19T02:16:44;17.30;99.90
3866;DHT22;1948;53.250;10.412;2023-09-19T02:19:11;17.30;99.90
3866;DHT22;1948;53.250;10.412;2023-09-19T02:21:40;17.20;99.90
3866;DHT22;1948;53.250;10.412;2023-09-19T02:24:08;17.10;99.90
3866;DHT22;1948;53.250;10.412;2023-09-19T02:26:37;17.20;99.90
3866;DHT22;1948;53.250;10.412;2023-09-19T02:29:04;17.10;99.90
3866;DHT22;1948;53.250;10.412;2023-09-19T02:31:31;17.20;99.90
3866;DHT22;1948;53.250;10.412;2023-09-19T02:34:00;17.10;99.90
3866;DHT22;1948;53.250;10.412;2023-09-19T02:36:28;17.10;99.90
3866;DHT22;1948;53.250;10.412;2023-09-19T02:38:57;17.20;99.90
3866;DHT22;1948;53.250;10.412;2023-09-19T02:41:25;17.20;99.90
3866;DHT22;1948;53.250;10.412;2023-09-19T02:43:52;17.20;99.90
3866;DHT22;1948;53.250;10.412;2023-09-19T02:46:20;17.20;99.90
3866;DHT22;1948;53.250;10.412;2023-09-19T02:48:48;17.20;99.90
3866;DHT22;1948;53.250;10.412;2023-09-19T02:51:15;17.10;99.90
3866;DHT22;1948;53.250;10.412;2023-09-19T02:53:43;17.20;99.90
3866;DHT22;1948;53.250;10.412;2023-09-19T02:56:10;17.20;99.90
3866;DHT22;1948;53.250;10.412;2023-09-19T02:58:40;17.20;99.90
3866;DHT22;1948;53.250;10.412;2023-09-19T03:01:11;17.30;99.90
3866;DHT22;1948;53.250;10.412;2023-09-19T03:03:39;17.30;99.90
3866;DHT22;1948;53.250;10.412;2023-09-19T03:06:09;17.30;99.90
3866;DHT22;1948;53.250;10.412;2023-09-19T03:08:40;17.30;99.90
3866;DHT22;1948;53.250;10.412;2023-09-19T03:11:09;17.30;99.90
3866;DHT22;1948;53.250;10.412;2023-09-19T03:13:38;17.30;99.90
3866;DHT22;1948;53.250;10.412;2023-09-19T03:16:07;17.20;99.90
3866;DHT22;1948;53.250;10.412;2023-09-19T03:18:40;17.20;99.90
3866;DHT22;1948;53.250;10.412;2023-09-19T03:21:07;17.10;99.90
3866;DHT22;1948;53.250;10.412;2023-09-19T03:23:34;17.10;99.90
3866;DHT22;1948;53.250;10.412;2023-09-19T03:26:02;17.20;99.90
3866;DHT22;1948;53.250;10.412;2023-09-19T03:28:33;17.20;99.90
3866;DHT22;1948;53.250;10.412;2023-09-19T03:31:05;17.20;99.90
3866;DHT22;1948;53.250;10.412;2023-09-19T03:33:35;17.10;99.90
3866;DHT22;1948;53.250;10.412;2023-09-19T03:36:07;17.10;99.90
3866;DHT22;1948;53.250;10.412;2023-09-19T03:38:37;17.10;99.90
3866;DHT22;1948;53.250;10.412;2023-09-19T03:41:07;17.10;99.90
3866;DHT22;1948;53.250;10.412;2023-09-19T03:43:36;17.10;99.90
3866;DHT22;1948;53.250;10.412;2023-09-19T03:46:06;17.10;99.90
3866;DHT22;1948;53.250;10.412;2023-09-19T03:48:34;17.00;99.90
3866;DHT22;1948;53.250;10.412;2023-09-19T03:51:04;17.00;99.90
3866;DHT22;1948;53.250;10.412;2023-09-19T03:53:31;17.00;99.90
3866;DHT22;1948;53.250;10.412;2023-09-19T03:55:58;16.90;99.90
3866;DHT22;1948;53.250;10.412;2023-09-19T03:58:26;16.80;99.90
3866;DHT22;1948;53.250;10.412;2023-09-19T04:00:58;16.80;99.90
3866;DHT22;1948;53.250;10.412;2023-09-19T04:03:25;16.80;99.90
3866;DHT22;1948;53.250;10.412;2023-09-19T04:06:03;16.80;99.90
3866;DHT22;1948;53.250;10.412;2023-09-19T04:08:30;16.80;99.90
3866;DHT22;1948;53.250;10.412;2023-09-19T04:10:57;16.80;99.90
3866;DHT22;1948;53.250;10.412;2023-09-19T04:13:25;16.80;99.90
3866;DHT22;1948;53.250;10.412;2023-09-19T04:15:55;16.90;99.90
3866;DHT22;1948;53.250;10.412;2023-09-19T04:18:23;16.80;99.90
3866;DHT22;1948;53.250;10.412;2023-09-19T04:20:51;16.80;99.90
3866;DHT22;1948;53.250;10.412;2023-09-19T04:23:25;16.80;99.90
3866;DHT22;1948;53.250;10.412;2023-09-19T04:25:52;16.80;99.90
3866;DHT22;1948;53.250;10.412;2023-09-19T04:28:23;16.70;99.90
3866;DHT22;1948;53.250;10.412;2023-09-19T04:30:53;16.70;99.90
3866;DHT22;1948;53.250;10.412;2023-09-19T04:33:23;16.70;99.90
3866;DHT22;1948;53.250;10.412;2023-09-19T04:35:50;16.70;99.90
3866;DHT22;1948;53.250;10.412;2023-09-19T04:38:18;16.60;99.90
3866;DHT22;1948;53.250;10.412;2023-09-19T04:40:46;16.60;99.90
3866;DHT22;1948;53.250;10.412;2023-09-19T04:43:18;16.60;99.90
3866;DHT22;1948;53.250;10.412;2023-09-19T04:45:46;16.60;99.90
3866;DHT22;1948;53.250;10.412;2023-09-19T04:48:15;16.40;99.90
3866;DHT22;1948;53.250;10.412;2023-09-19T04:50:43;16.40;99.90
3866;DHT22;1948;53.250;10.412;2023-09-19T04:53:11;16.40;99.90
3866;DHT22;1948;53.250;10.412;2023-09-19T04:55:38;16.40;99.90
3866;DHT22;1948;53.250;10.412;2023-09-19T04:58:08;16.30;99.90
3866;DHT22;1948;53.250;10.412;2023-09-19T05:00:35;16.30;99.90
3866;DHT22;1948;53.250;10.412;2023-09-19T05:03:02;16.30;99.90
3866;DHT22;1948;53.250;10.412;2023-09-19T05:05:33;16.30;99.90
3866;DHT22;1948;53.250;10.412;2023-09-19T05:08:03;16.30;99.90
3866;DHT22;1948;53.250;10.412;2023-09-19T05:10:32;16.20;99.90
3866;DHT22;1948;53.250;10.412;2023-09-19T05:12:59;16.20;99.90
3866;DHT22;1948;53.250;10.412;2023-09-19T05:15:27;16.20;99.90
3866;DHT22;1948;53.250;10.412;2023-09-19T05:17:54;16.20;99.90
3866;DHT22;1948;53.250;10.412;2023-09-19T05:20:24;16.20;99.90
3866;DHT22;1948;53.250;10.412;2023-09-19T05:23:04;16.20;99.90
3866;DHT22;1948;53.250;10.412;2023-09-19T05:25:39;16.20;99.90
3866;DHT22;1948;53.250;10.412;2023-09-19T05:28:10;16.10;99.90
3866;DHT22;1948;53.250;10.412;2023-09-19T05:30:42;16.10;99.90
3866;DHT22;1948;53.250;10.412;2023-09-19T05:33:13;16.10;99.90
3866;DHT22;1948;53.250;10.412;2023-09-19T05:35:42;16.10;99.90
3866;DHT22;1948;53.250;10.412;2023-09-19T05:38:10;16.10;99.90
3866;DHT22;1948;53.250;10.412;2023-09-19T05:40:39;16.10;99.90
3866;DHT22;1948;53.250;10.412;2023-09-19T05:43:09;16.10;99.90
3866;DHT22;1948;53.250;10.412;2023-09-19T05:45:42;16.10;99.90
3866;DHT22;1948;53.250;10.412;2023-09-19T05:48:14;16.10;99.90
3866;DHT22;1948;53.250;10.412;2023-09-19T05:50:44;16.10;99.90
3866;DHT22;1948;53.250;10.412;2023-09-19T05:53:14;16.10;99.90
3866;DHT22;1948;53.250;10.412;2023-09-19T05:55:42;16.10;99.90
3866;DHT22;1948;53.250;10.412;2023-09-19T05:58:09;16.00;99.90
3866;DHT22;1948;53.250;10.412;2023-09-19T06:00:37;16.10;99.90
3866;DHT22;1948;53.250;10.412;2023-09-19T06:03:06;16.10;99.90
3866;DHT22;1948;53.250;10.412;2023-09-19T06:05:33;16.30;99.90
3866;DHT22;1948;53.250;10.412;2023-09-19T06:08:00;16.40;99.90
3866;DHT22;1948;53.250;10.412;2023-09-19T06:10:30;16.60;99.90
3866;DHT22;1948;53.250;10.412;2023-09-19T06:13:07;16.80;99.90
3866;DHT22;1948;53.250;10.412;2023-09-19T06:15:37;17.00;99.90
3866;DHT22;1948;53.250;10.412;2023-09-19T06:18:04;17.20;99.90
3866;DHT22;1948;53.250;10.412;2023-09-19T06:20:38;17.50;99.90
3866;DHT22;1948;53.250;10.412;2023-09-19T06:23:12;17.50;99.90
3866;DHT22;1948;53.250;10.412;2023-09-19T06:25:41;17.60;99.90
3866;DHT22;1948;53.250;10.412;2023-09-19T06:28:10;18.00;99.90
3866;DHT22;1948;53.250;10.412;2023-09-19T06:30:41;18.20;99.90
3866;DHT22;1948;53.250;10.412;2023-09-19T06:33:09;18.30;99.90
3866;DHT22;1948;53.250;10.412;2023-09-19T06:35:42;18.60;99.90
3866;DHT22;1948;53.250;10.412;2023-09-19T06:38:13;18.90;99.90
3866;DHT22;1948;53.250;10.412;2023-09-19T06:40:42;19.20;99.90
3866;DHT22;1948;53.250;10.412;2023-09-19T06:43:10;19.10;99.90
3866;DHT22;1948;53.250;10.412;2023-09-19T06:45:41;19.50;99.90
3866;DHT22;1948;53.250;10.412;2023-09-19T06:48:09;19.70;99.90
3866;DHT22;1948;53.250;10.412;2023-09-19T06:50:37;19.60;99.90
3866;DHT22;1948;53.250;10.412;2023-09-19T06:53:05;19.50;99.90
3866;DHT22;1948;53.250;10.412;2023-09-19T06:55:33;19.40;99.90
3866;DHT22;1948;53.250;10.412;2023-09-19T06:58:02;19.20;99.90
3866;DHT22;1948;53.250;10.412;2023-09-19T07:00:29;19.30;99.90
3866;DHT22;1948;53.250;10.412;2023-09-19T07:05:32;19.60;99.90
3866;DHT22;1948;53.250;10.412;2023-09-19T07:08:07;19.90;99.90
3866;DHT22;1948;53.250;10.412;2023-09-19T07:10:38;20.10;99.90
3866;DHT22;1948;53.250;10.412;2023-09-19T07:13:16;20.00;99.90
3866;DHT22;1948;53.250;10.412;2023-09-19T07:15:46;19.60;99.90
3866;DHT22;1948;53.250;10.412;2023-09-19T07:18:15;19.20;99.90
3866;DHT22;1948;53.250;10.412;2023-09-19T07:20:47;18.80;99.90
3866;DHT22;1948;53.250;10.412;2023-09-19T07:23:20;19.20;99.90
3866;DHT22;1948;53.250;10.412;2023-09-19T07:25:50;19.20;99.90
3866;DHT22;1948;53.250;10.412;2023-09-19T07:28:18;19.10;99.90
3866;DHT22;1948;53.250;10.412;2023-09-19T07:30:45;18.80;99.90
3866;DHT22;1948;53.250;10.412;2023-09-19T07:33:16;18.80;99.90
3866;DHT22;1948;53.250;10.412;2023-09-19T07:35:46;18.90;99.90
3866;DHT22;1948;53.250;10.412;2023-09-19T07:38:14;19.00;99.90
3866;DHT22;1948;53.250;10.412;2023-09-19T07:40:42;19.00;99.90
3866;DHT22;1948;53.250;10.412;2023-09-19T07:43:09;19.00;99.90
3866;DHT22;1948;53.250;10.412;2023-09-19T07:45:36;18.70;99.90
3866;DHT22;1948;53.250;10.412;2023-09-19T07:48:03;18.70;99.90
3866;DHT22;1948;53.250;10.412;2023-09-19T07:50:35;18.90;99.90
3866;DHT22;1948;53.250;10.412;2023-09-19T07:53:03;19.30;99.90
3866;DHT22;1948;53.250;10.412;2023-09-19T07:55:34;20.10;99.90
3866;DHT22;1948;53.250;10.412;2023-09-19T07:58:01;21.20;99.90
3866;DHT22;1948;53.250;10.412;2023-09-19T08:00:30;21.60;99.90
3866;DHT22;1948;53.250;10.412;2023-09-19T08:03:02;21.20;99.90
3866;DHT22;1948;53.250;10.412;2023-09-19T08:05:44;21.00;99.90
3866;DHT22;1948;53.250;10.412;2023-09-19T08:08:12;20.50;99.90
3866;DHT22;1948;53.250;10.412;2023-09-19T08:10:42;20.20;99.90
3866;DHT22;1948;53.250;10.412;2023-09-19T08:13:10;19.90;99.90
3866;DHT22;1948;53.250;10.412;2023-09-19T08:15:43;19.60;99.90
3866;DHT22;1948;53.250;10.412;2023-09-19T08:18:15;19.90;99.90
3866;DHT22;1948;53.250;10.412;2023-09-19T08:20:43;20.90;99.90
3866;DHT22;1948;53.250;10.412;2023-09-19T08:23:13;21.70;99.90
3866;DHT22;1948;53.250;10.412;2023-09-19T08:25:40;21.90;99.90
3866;DHT22;1948;53.250;10.412;2023-09-19T08:28:12;21.90;99.90
3866;DHT22;1948;53.250;10.412;2023-09-19T08:30:46;21.90;99.90
3866;DHT22;1948;53.250;10.412;2023-09-19T08:33:16;21.70;99.90
3866;DHT22;1948;53.250;10.412;2023-09-19T08:35:43;21.80;99.90
3866;DHT22;1948;53.250;10.412;2023-09-19T08:38:12;22.00;99.90
3866;DHT22;1948;53.250;10.412;2023-09-19T08:40:41;22.10;99.90
3866;DHT22;1948;53.250;10.412;2023-09-19T08:43:15;22.10;99.90
3866;DHT22;1948;53.250;10.412;2023-09-19T08:45:42;21.90;99.90
3866;DHT22;1948;53.250;10.412;2023-09-19T08:48:23;21.70;99.90
3866;DHT22;1948;53.250;10.412;2023-09-19T08:51:03;21.50;99.90
3866;DHT22;1948;53.250;10.412;2023-09-19T08:53:54;21.10;99.90
3866;DHT22;1948;53.250;10.412;2023-09-19T08:56:26;21.00;99.90
3866;DHT22;1948;53.250;10.412;2023-09-19T08:59:01;20.90;99.90
3866;DHT22;1948;53.250;10.412;2023-09-19T09:01:34;20.60;99.90
3866;DHT22;1948;53.250;10.412;2023-09-19T09:04:02;21.10;99.90
3866;DHT22;1948;53.250;10.412;2023-09-19T09:06:38;21.90;99.90
3866;DHT22;1948;53.250;10.412;2023-09-19T09:09:06;23.10;99.90
3866;DHT22;1948;53.250;10.412;2023-09-19T09:11:38;23.70;99.90
3866;DHT22;1948;53.250;10.412;2023-09-19T09:14:07;24.80;99.90
3866;DHT22;1948;53.250;10.412;2023-09-19T09:16:37;25.80;99.90
3866;DHT22;1948;53.250;10.412;2023-09-19T09:19:06;25.50;99.90
3866;DHT22;1948;53.250;10.412;2023-09-19T09:21:33;24.70;99.90
3866;DHT22;1948;53.250;10.412;2023-09-19T09:27:03;24.50;99.90
3866;DHT22;1948;53.250;10.412;2023-09-19T09:29:48;23.80;99.90
3866;DHT22;1948;53.250;10.412;2023-09-19T09:32:29;24.10;99.90
3866;DHT22;1948;53.250;10.412;2023-09-19T09:35:01;24.50;99.90
3866;DHT22;1948;53.250;10.412;2023-09-19T09:37:43;24.20;99.90
3866;DHT22;1948;53.250;10.412;2023-09-19T09:40:14;24.30;99.90
3866;DHT22;1948;53.250;10.412;2023-09-19T09:42:41;24.00;99.90
3866;DHT22;1948;53.250;10.412;2023-09-19T09:45:20;24.40;99.90
3866;DHT22;1948;53.250;10.412;2023-09-19T09:48:00;24.20;99.90
3866;DHT22;1948;53.250;10.412;2023-09-19T09:50:35;24.80;99.90
3866;DHT22;1948;53.250;10.412;2023-09-19T09:56:01;26.20;99.90
3866;DHT22;1948;53.250;10.412;2023-09-19T09:58:58;25.30;99.90
3866;DHT22;1948;53.250;10.412;2023-09-19T10:01:26;24.80;99.90
3866;DHT22;1948;53.250;10.412;2023-09-19T10:03:58;24.90;99.90
3866;DHT22;1948;53.250;10.412;2023-09-19T10:06:40;25.30;99.90
3866;DHT22;1948;53.250;10.412;2023-09-19T10:09:13;25.60;99.90
3866;DHT22;1948;53.250;10.412;2023-09-19T10:12:07;24.10;99.90
3866;DHT22;1948;53.250;10.412;2023-09-19T10:14:38;23.80;99.90
3866;DHT22;1948;53.250;10.412;2023-09-19T10:17:05;24.40;99.90
3866;DHT22;1948;53.250;10.412;2023-09-19T10:19:50;24.70;99.90
3866;DHT22;1948;53.250;10.412;2023-09-19T10:22:26;25.10;99.90
3866;DHT22;1948;53.250;10.412;2023-09-19T10:24:53;24.50;99.90
3866;DHT22;1948;53.250;10.412;2023-09-19T10:27:29;24.60;99.90
3866;DHT22;1948;53.250;10.412;2023-09-19T10:30:06;25.60;99.90
3866;DHT22;1948;53.250;10.412;2023-09-19T10:32:35;26.10;99.90
3866;DHT22;1948;53.250;10.412;2023-09-19T10:35:11;25.40;99.90
3866;DHT22;1948;53.250;10.412;2023-09-19T10:37:41;25.70;99.90
3866;DHT22;1948;53.250;10.412;2023-09-19T10:40:13;24.50;99.90
3866;DHT22;1948;53.250;10.412;2023-09-19T10:42:44;23.70;99.90
3866;DHT22;1948;53.250;10.412;2023-09-19T10:45:13;23.50;99.90
3866;DHT22;1948;53.250;10.412;2023-09-19T10:47:42;23.20;99.90
3866;DHT22;1948;53.250;10.412;2023-09-19T10:50:19;22.70;99.90
3866;DHT22;1948;53.250;10.412;2023-09-19T10:52:50;22.60;99.90
3866;DHT22;1948;53.250;10.412;2023-09-19T10:55:28;23.00;99.90
3866;DHT22;1948;53.250;10.412;2023-09-19T10:57:57;23.40;99.90
3866;DHT22;1948;53.250;10.412;2023-09-19T11:00:57;23.70;99.90
3866;DHT22;1948;53.250;10.412;2023-09-19T11:03:39;24.80;99.90
3866;DHT22;1948;53.250;10.412;2023-09-19T11:06:15;24.30;99.90
3866;DHT22;1948;53.250;10.412;2023-09-19T11:30:48;22.50;99.90
3866;DHT22;1948;53.250;10.412;2023-09-19T11:36:15;22.70;99.90
3866;DHT22;1948;53.250;10.412;2023-09-19T11:46:55;22.40;99.90
3866;DHT22;1948;53.250;10.412;2023-09-19T11:49:30;21.70;99.90
3866;DHT22;1948;53.250;10.412;2023-09-19T11:52:02;21.60;99.90
3866;DHT22;1948;53.250;10.412;2023-09-19T11:54:36;21.70;99.90
3866;DHT22;1948;53.250;10.412;2023-09-19T11:57:12;22.30;99.90
3866;DHT22;1948;53.250;10.412;2023-09-19T11:59:49;22.60;99.90
3866;DHT22;1948;53.250;10.412;2023-09-19T12:02:37;23.50;99.90
3866;DHT22;1948;53.250;10.412;2023-09-19T12:05:08;23.60;99.90
3866;DHT22;1948;53.250;10.412;2023-09-19T12:07:43;24.20;99.90
3866;DHT22;1948;53.250;10.412;2023-09-19T12:10:13;24.30;99.90
3866;DHT22;1948;53.250;10.412;2023-09-19T12:12:47;23.50;99.90
3866;DHT22;1948;53.250;10.412;2023-09-19T12:15:23;23.60;99.90
3866;DHT22;1948;53.250;10.412;2023-09-19T12:17:55;23.50;99.90
3866;DHT22;1948;53.250;10.412;2023-09-19T12:20:40;23.80;99.90
3866;DHT22;1948;53.250;10.412;2023-09-19T12:23:13;24.80;99.90
3866;DHT22;1948;53.250;10.412;2023-09-19T12:25:43;24.20;99.90
3866;DHT22;1948;53.250;10.412;2023-09-19T12:28:17;24.60;99.90
3866;DHT22;1948;53.250;10.412;2023-09-19T12:30:49;24.80;99.90
3866;DHT22;1948;53.250;10.412;2023-09-19T12:33:20;24.60;99.90
3866;DHT22;1948;53.250;10.412;2023-09-19T12:35:47;25.30;99.90
3866;DHT22;1948;53.250;10.412;2023-09-19T12:38:28;23.80;99.90
3866;DHT22;1948;53.250;10.412;2023-09-19T12:40:59;24.10;99.90
3866;DHT22;1948;53.250;10.412;2023-09-19T12:43:30;25.10;99.90
3866;DHT22;1948;53.250;10.412;2023-09-19T12:46:04;25.90;99.90
3866;DHT22;1948;53.250;10.412;2023-09-19T12:48:32;26.30;99.90
3866;DHT22;1948;53.250;10.412;2023-09-19T12:51:07;25.90;99.90
3866;DHT22;1948;53.250;10.412;2023-09-19T12:53:44;25.80;99.90
3866;DHT22;1948;53.250;10.412;2023-09-19T12:56:18;25.40;99.90
3866;DHT22;1948;53.250;10.412;2023-09-19T12:58:57;24.90;99.90
3866;DHT22;1948;53.250;10.412;2023-09-19T13:01:29;24.50;99.90
3866;DHT22;1948;53.250;10.412;2023-09-19T13:04:17;24.20;99.90
3866;DHT22;1948;53.250;10.412;2023-09-19T13:06:48;24.40;99.90
3866;DHT22;1948;53.250;10.412;2023-09-19T13:09:22;24.30;99.90
3866;DHT22;1948;53.250;10.412;2023-09-19T13:11:59;23.70;99.90
3866;DHT22;1948;53.250;10.412;2023-09-19T13:14:30;23.50;99.90
3866;DHT22;1948;53.250;10.412;2023-09-19T13:17:07;23.40;99.90
3866;DHT22;1948;53.250;10.412;2023-09-19T13:19:47;23.40;99.90
3866;DHT22;1948;53.250;10.412;2023-09-19T13:22:40;23.10;99.90
3866;DHT22;1948;53.250;10.412;2023-09-19T13:25:23;22.50;99.90
3866;DHT22;1948;53.250;10.412;2023-09-19T13:27:57;22.50;99.90
3866;DHT22;1948;53.250;10.412;2023-09-19T13:30:26;22.80;99.90
3866;DHT22;1948;53.250;10.412;2023-09-19T13:33:09;23.60;99.90
3866;DHT22;1948;53.250;10.412;2023-09-19T13:35:38;24.10;99.90
3866;DHT22;1948;53.250;10.412;2023-09-19T13:38:14;24.80;99.90
3866;DHT22;1948;53.250;10.412;2023-09-19T13:40:45;25.50;99.90
3866;DHT22;1948;53.250;10.412;2023-09-19T13:43:14;25.80;99.90
3866;DHT22;1948;53.250;10.412;2023-09-19T13:45:42;25.30;99.90
3866;DHT22;1948;53.250;10.412;2023-09-19T13:48:09;24.80;99.90
3866;DHT22;1948;53.250;10.412;2023-09-19T13:50:40;24.80;99.90
3866;DHT22;1948;53.250;10.412;2023-09-19T13:53:09;24.80;99.90
3866;DHT22;1948;53.250;10.412;2023-09-19T13:55:36;25.30;99.90
3866;DHT22;1948;53.250;10.412;2023-09-19T13:58:04;25.20;99.90
3866;DHT22;1948;53.250;10.412;2023-09-19T14:00:37;25.30;99.90
3866;DHT22;1948;53.250;10.412;2023-09-19T14:03:08;26.50;99.90
3866;DHT22;1948;53.250;10.412;2023-09-19T14:05:40;25.20;99.90
3866;DHT22;1948;53.250;10.412;2023-09-19T14:08:09;24.80;99.90
3866;DHT22;1948;53.250;10.412;2023-09-19T14:10:36;23.80;99.90
3866;DHT22;1948;53.250;10.412;2023-09-19T14:13:04;23.90;99.90
3866;DHT22;1948;53.250;10.412;2023-09-19T14:15:31;24.50;99.90
3866;DHT22;1948;53.250;10.412;2023-09-19T14:17:59;24.30;99.90
3866;DHT22;1948;53.250;10.412;2023-09-19T14:20:29;24.20;99.90
3866;DHT22;1948;53.250;10.412;2023-09-19T14:22:57;24.50;99.90
3866;DHT22;1948;53.250;10.412;2023-09-19T14:25:30;25.00;99.90
3866;DHT22;1948;53.250;10.412;2023-09-19T14:27:57;24.50;99.90
3866;DHT22;1948;53.250;10.412;2023-09-19T14:30:25;24.30;99.90
3866;DHT22;1948;53.250;10.412;2023-09-19T14:32:55;23.60;99.90
3866;DHT22;1948;53.250;10.412;2023-09-19T14:35:24;23.40;99.90
3866;DHT22;1948;53.250;10.412;2023-09-19T14:37:52;23.90;99.90
3866;DHT22;1948;53.250;10.412;2023-09-19T14:40:20;24.50;99.90
3866;DHT22;1948;53.250;10.412;2023-09-19T14:42:49;23.90;99.90
3866;DHT22;1948;53.250;10.412;2023-09-19T14:45:18;23.10;99.90
3866;DHT22;1948;53.250;10.412;2023-09-19T14:47:46;22.40;99.90
3866;DHT22;1948;53.250;10.412;2023-09-19T14:50:21;22.10;99.90
3866;DHT22;1948;53.250;10.412;2023-09-19T14:52:51;22.30;99.90
3866;DHT22;1948;53.250;10.412;2023-09-19T14:55:21;22.40;99.90
3866;DHT22;1948;53.250;10.412;2023-09-19T14:57:52;21.90;99.90
3866;DHT22;1948;53.250;10.412;2023-09-19T15:00:20;21.80;99.90
3866;DHT22;1948;53.250;10.412;2023-09-19T15:02:50;21.60;99.90
3866;DHT22;1948;53.250;10.412;2023-09-19T15:05:22;21.50;99.90
3866;DHT22;1948;53.250;10.412;2023-09-19T15:07:50;21.30;99.90
3866;DHT22;1948;53.250;10.412;2023-09-19T15:10:18;21.30;99.90
3866;DHT22;1948;53.250;10.412;2023-09-19T15:12:48;21.40;99.90
3866;DHT22;1948;53.250;10.412;2023-09-19T15:15:16;21.00;99.90
3866;DHT22;1948;53.250;10.412;2023-09-19T15:17:43;21.10;99.90
3866;DHT22;1948;53.250;10.412;2023-09-19T15:20:11;21.20;99.90
3866;DHT22;1948;53.250;10.412;2023-09-19T15:22:41;21.50;99.90
3866;DHT22;1948;53.250;10.412;2023-09-19T15:25:11;21.30;99.90
3866;DHT22;1948;53.250;10.412;2023-09-19T15:27:44;21.40;99.90
3866;DHT22;1948;53.250;10.412;2023-09-19T15:30:18;21.40;99.90
3866;DHT22;1948;53.250;10.412;2023-09-19T15:32:45;21.00;99.90
3866;DHT22;1948;53.250;10.412;2023-09-19T15:35:14;21.00;99.90
3866;DHT22;1948;53.250;10.412;2023-09-19T15:37:46;20.90;99.90
3866;DHT22;1948;53.250;10.412;2023-09-19T15:40:13;21.10;99.90
3866;DHT22;1948;53.250;10.412;2023-09-19T15:42:40;21.30;99.90
3866;DHT22;1948;53.250;10.412;2023-09-19T15:45:11;21.30;99.90
3866;DHT22;1948;53.250;10.412;2023-09-19T15:47:38;21.10;99.90
3866;DHT22;1948;53.250;10.412;2023-09-19T15:50:06;21.10;99.90
3866;DHT22;1948;53.250;10.412;2023-09-19T15:52:36;20.90;99.90
3866;DHT22;1948;53.250;10.412;2023-09-19T15:55:03;20.80;99.90
3866;DHT22;1948;53.250;10.412;2023-09-19T15:57:31;20.70;99.90
3866;DHT22;1948;53.250;10.412;2023-09-19T15:59:58;20.50;99.90
3866;DHT22;1948;53.250;10.412;2023-09-19T16:02:29;20.50;99.90
3866;DHT22;1948;53.250;10.412;2023-09-19T16:04:57;20.50;99.90
3866;DHT22;1948;53.250;10.412;2023-09-19T16:07:25;20.40;99.90
3866;DHT22;1948;53.250;10.412;2023-09-19T16:09:52;20.30;99.90
3866;DHT22;1948;53.250;10.412;2023-09-19T16:12:19;20.30;99.90
3866;DHT22;1948;53.250;10.412;2023-09-19T16:14:47;20.20;99.90
3866;DHT22;1948;53.250;10.412;2023-09-19T16:17:15;20.20;99.90
3866;DHT22;1948;53.250;10.412;2023-09-19T16:19:45;20.20;99.90
3866;DHT22;1948;53.250;10.412;2023-09-19T16:22:14;20.20;99.90
3866;DHT22;1948;53.250;10.412;2023-09-19T16:24:43;20.30;99.90
3866;DHT22;1948;53.250;10.412;2023-09-19T16:27:11;20.20;99.90
3866;DHT22;1948;53.250;10.412;2023-09-19T16:29:38;20.10;99.90
3866;DHT22;1948;53.250;10.412;2023-09-19T16:32:05;20.00;99.90
3866;DHT22;1948;53.250;10.412;2023-09-19T16:34:33;20.00;99.90
3866;DHT22;1948;53.250;10.412;2023-09-19T16:37:00;20.00;99.90
3866;DHT22;1948;53.250;10.412;2023-09-19T16:39:29;20.00;99.90
3866;DHT22;1948;53.250;10.412;2023-09-19T16:41:56;20.00;99.90
3866;DHT22;1948;53.250;10.412;2023-09-19T16:44:25;19.90;99.90
3866;DHT22;1948;53.250;10.412;2023-09-19T16:46:52;19.90;99.90
3866;DHT22;1948;53.250;10.412;2023-09-19T16:49:21;19.90;99.90
3866;DHT22;1948;53.250;10.412;2023-09-19T16:51:51;19.90;99.90
3866;DHT22;1948;53.250;10.412;2023-09-19T16:54:21;19.90;99.90
3866;DHT22;1948;53.250;10.412;2023-09-19T16:56:50;19.80;99.90
3866;DHT22;1948;53.250;10.412;2023-09-19T16:59:17;19.80;99.90